sensor_id;sensor_type;location;lat;lon;timestamp;temperature;humidity
75155;HTU21D;63735;44.730;37.818;2023-04-06T00:02:10;10.55;80.98
75155;HTU21D;63735;44.730;37.818;2023-04-06T00:04:36;10.50;80.95
75155;HTU21D;63735;44.730;37.818;2023-04-06T00:07:02;10.49;81.01
75155;HTU21D;63735;44.730;37.818;2023-04-06T00:09:28;10.48;81.04
75155;HTU21D;63735;44.730;37.818;2023-04-06T00:11:54;10.38;81.17
75155;HTU21D;63735;44.730;37.818;2023-04-06T00:14:20;10.34;81.32
75155;HTU21D;63735;44.730;37.818;2023-04-06T00:16:46;10.30;81.35
75155;HTU21D;63735;44.730;37.818;2023-04-06T00:19:12;10.29;81.36
75155;HTU21D;63735;44.730;37.818;2023-04-06T00:21:38;10.29;81.31
75155;HTU21D;63735;44.730;37.818;2023-04-06T00:24:04;10.30;81.23
75155;HTU21D;63735;44.730;37.818;2023-04-06T00:26:30;10.27;81.23
75155;HTU21D;63735;44.730;37.818;2023-04-06T00:28:56;10.27;81.20
75155;HTU21D;63735;44.730;37.818;2023-04-06T00:31:24;10.24;81.15
75155;HTU21D;63735;44.730;37.818;2023-04-06T00:33:50;10.23;81.15
75155;HTU21D;63735;44.730;37.818;2023-04-06T00:36:16;10.25;81.12
75155;HTU21D;63735;44.730;37.818;2023-04-06T00:38:42;10.24;81.04
75155;HTU21D;63735;44.730;37.818;2023-04-06T00:41:08;10.20;81.07
75155;HTU21D;63735;44.730;37.818;2023-04-06T00:43:34;10.21;81.03
75155;HTU21D;63735;44.730;37.818;2023-04-06T00:46:00;10.19;80.98
75155;HTU21D;63735;44.730;37.818;2023-04-06T00:48:26;10.14;81.04
75155;HTU21D;63735;44.730;37.818;2023-04-06T00:50:52;10.12;81.08
75155;HTU21D;63735;44.730;37.818;2023-04-06T00:53:18;10.05;81.09
75155;HTU21D;63735;44.730;37.818;2023-04-06T00:55:44;9.98;81.17
75155;HTU21D;63735;44.730;37.818;2023-04-06T00:58:10;9.97;81.24
75155;HTU21D;63735;44.730;37.818;2023-04-06T01:00:45;9.99;81.20
75155;HTU21D;63735;44.730;37.818;2023-04-06T01:03:16;9.99;81.14
75155;HTU21D;63735;44.730;37.818;2023-04-06T01:05:43;10.03;81.05
75155;HTU21D;63735;44.730;37.818;2023-04-06T01:08:20;10.09;80.93
75155;HTU21D;63735;44.730;37.818;2023-04-06T01:10:47;10.09;80.75
75155;HTU21D;63735;44.730;37.818;2023-04-06T01:13:24;10.11;80.72
75155;HTU21D;63735;44.730;37.818;2023-04-06T01:15:56;10.08;80.60
75155;HTU21D;63735;44.730;37.818;2023-04-06T01:18:43;10.06;80.63
75155;HTU21D;63735;44.730;37.818;2023-04-06T01:21:22;10.08;80.52
75155;HTU21D;63735;44.730;37.818;2023-04-06T01:24:04;10.07;80.51
75155;HTU21D;63735;44.730;37.818;2023-04-06T01:26:40;10.07;80.51
75155;HTU21D;63735;44.730;37.818;2023-04-06T01:29:08;10.05;80.56
75155;HTU21D;63735;44.730;37.818;2023-04-06T01:31:34;10.05;80.54
75155;HTU21D;63735;44.730;37.818;2023-04-06T01:34:00;10.06;80.50
75155;HTU21D;63735;44.730;37.818;2023-04-06T01:36:26;10.03;80.55
75155;HTU21D;63735;44.730;37.818;2023-04-06T01:39:05;10.00;80.69
75155;HTU21D;63735;44.730;37.818;2023-04-06T01:41:35;10.00;80.63
75155;HTU21D;63735;44.730;37.818;2023-04-06T01:44:02;9.98;80.67
75155;HTU21D;63735;44.730;37.818;2023-04-06T01:46:29;9.98;80.70
75155;HTU21D;63735;44.730;37.818;2023-04-06T01:48:56;9.95;80.70
75155;HTU21D;63735;44.730;37.818;2023-04-06T01:51:48;9.94;80.69
75155;HTU21D;63735;44.730;37.818;2023-04-06T01:54:15;9.93;80.73
75155;HTU21D;63735;44.730;37.818;2023-04-06T01:57:16;9.92;80.74
75155;HTU21D;63735;44.730;37.818;2023-04-06T02:00:07;9.88;80.71
75155;HTU21D;63735;44.730;37.818;2023-04-06T02:02:39;9.88;80.73
75155;HTU21D;63735;44.730;37.818;2023-04-06T02:05:10;9.86;80.66
75155;HTU21D;63735;44.730;37.818;2023-04-06T02:07:38;9.91;80.64
75155;HTU21D;63735;44.730;37.818;2023-04-06T02:10:04;9.94;80.59
75155;HTU21D;63735;44.730;37.818;2023-04-06T02:12:37;9.93;80.46
75155;HTU21D;63735;44.730;37.818;2023-04-06T02:15:05;9.92;80.52
75155;HTU21D;63735;44.730;37.818;2023-04-06T02:17:31;9.89;80.65
75155;HTU21D;63735;44.730;37.818;2023-04-06T02:19:57;9.86;80.69
75155;HTU21D;63735;44.730;37.818;2023-04-06T02:22:23;9.81;80.77
75155;HTU21D;63735;44.730;37.818;2023-04-06T02:24:50;9.75;80.98
75155;HTU21D;63735;44.730;37.818;2023-04-06T02:27:16;9.70;81.15
75155;HTU21D;63735;44.730;37.818;2023-04-06T02:29:46;9.70;81.08
75155;HTU21D;63735;44.730;37.818;2023-04-06T02:32:13;9.70;81.06
75155;HTU21D;63735;44.730;37.818;2023-04-06T02:34:39;9.72;80.98
75155;HTU21D;63735;44.730;37.818;2023-04-06T02:37:05;9.70;81.03
75155;HTU21D;63735;44.730;37.818;2023-04-06T02:39:31;9.71;81.08
75155;HTU21D;63735;44.730;37.818;2023-04-06T02:41:57;9.74;81.01
75155;HTU21D;63735;44.730;37.818;2023-04-06T02:44:25;9.75;80.91
75155;HTU21D;63735;44.730;37.818;2023-04-06T02:46:51;9.80;80.80
75155;HTU21D;63735;44.730;37.818;2023-04-06T02:49:17;9.80;80.74
75155;HTU21D;63735;44.730;37.818;2023-04-06T02:51:43;9.79;80.70
75155;HTU21D;63735;44.730;37.818;2023-04-06T02:54:23;9.81;80.60
75155;HTU21D;63735;44.730;37.818;2023-04-06T02:56:49;9.81;80.53
75155;HTU21D;63735;44.730;37.818;2023-04-06T02:59:16;9.84;80.42
75155;HTU21D;63735;44.730;37.818;2023-04-06T03:01:49;9.83;80.34
75155;HTU21D;63735;44.730;37.818;2023-04-06T03:04:16;9.83;80.25
75155;HTU21D;63735;44.730;37.818;2023-04-06T03:06:42;9.85;80.20
75155;HTU21D;63735;44.730;37.818;2023-04-06T03:09:19;9.84;80.16
75155;HTU21D;63735;44.730;37.818;2023-04-06T03:11:45;9.88;80.11
75155;HTU21D;63735;44.730;37.818;2023-04-06T03:14:11;9.88;80.04
75155;HTU21D;63735;44.730;37.818;2023-04-06T03:16:37;9.89;79.98
75155;HTU21D;63735;44.730;37.818;2023-04-06T03:19:04;9.90;79.95
75155;HTU21D;63735;44.730;37.818;2023-04-06T03:21:33;9.95;79.86
75155;HTU21D;63735;44.730;37.818;2023-04-06T03:24:00;9.96;79.78
75155;HTU21D;63735;44.730;37.818;2023-04-06T03:26:26;9.95;79.75
75155;HTU21D;63735;44.730;37.818;2023-04-06T03:28:52;9.98;79.69
75155;HTU21D;63735;44.730;37.818;2023-04-06T03:31:21;9.96;79.62
75155;HTU21D;63735;44.730;37.818;2023-04-06T03:34:07;9.96;79.60
75155;HTU21D;63735;44.730;37.818;2023-04-06T03:36:35;9.97;79.53
75155;HTU21D;63735;44.730;37.818;2023-04-06T03:39:03;9.96;79.49
75155;HTU21D;63735;44.730;37.818;2023-04-06T03:41:31;9.93;79.46
75155;HTU21D;63735;44.730;37.818;2023-04-06T03:44:24;9.91;79.45
75155;HTU21D;63735;44.730;37.818;2023-04-06T03:46:50;9.89;79.47
75155;HTU21D;63735;44.730;37.818;2023-04-06T03:49:17;9.84;79.46
75155;HTU21D;63735;44.730;37.818;2023-04-06T03:51:47;9.84;79.53
75155;HTU21D;63735;44.730;37.818;2023-04-06T03:54:13;9.83;79.45
75155;HTU21D;63735;44.730;37.818;2023-04-06T03:56:39;9.84;79.43
75155;HTU21D;63735;44.730;37.818;2023-04-06T03:59:05;9.85;79.30
75155;HTU21D;63735;44.730;37.818;2023-04-06T04:01:31;9.91;79.22
75155;HTU21D;63735;44.730;37.818;2023-04-06T04:03:57;9.93;79.13
75155;HTU21D;63735;44.730;37.818;2023-04-06T04:06:22;10.00;79.00
75155;HTU21D;63735;44.730;37.818;2023-04-06T04:08:48;10.00;78.89
75155;HTU21D;63735;44.730;37.818;2023-04-06T04:11:14;10.04;78.81
75155;HTU21D;63735;44.730;37.818;2023-04-06T04:13:42;10.06;78.73
75155;HTU21D;63735;44.730;37.818;2023-04-06T04:16:08;10.06;78.65
75155;HTU21D;63735;44.730;37.818;2023-04-06T04:18:35;10.08;78.64
75155;HTU21D;63735;44.730;37.818;2023-04-06T04:21:02;10.09;78.57
75155;HTU21D;63735;44.730;37.818;2023-04-06T04:23:28;10.07;78.52
75155;HTU21D;63735;44.730;37.818;2023-04-06T04:25:54;10.00;78.51
75155;HTU21D;63735;44.730;37.818;2023-04-06T04:28:20;9.95;78.59
75155;HTU21D;63735;44.730;37.818;2023-04-06T04:30:46;9.95;78.59
75155;HTU21D;63735;44.730;37.818;2023-04-06T04:33:13;9.92;78.60
75155;HTU21D;63735;44.730;37.818;2023-04-06T04:35:41;9.86;78.66
75155;HTU21D;63735;44.730;37.818;2023-04-06T04:38:08;9.84;78.65
75155;HTU21D;63735;44.730;37.818;2023-04-06T04:40:38;9.85;78.65
75155;HTU21D;63735;44.730;37.818;2023-04-06T04:43:11;9.82;78.75
75155;HTU21D;63735;44.730;37.818;2023-04-06T04:45:38;9.81;78.85
75155;HTU21D;63735;44.730;37.818;2023-04-06T04:48:24;9.82;78.82
75155;HTU21D;63735;44.730;37.818;2023-04-06T04:50:56;9.80;78.85
75155;HTU21D;63735;44.730;37.818;2023-04-06T04:53:26;9.79;78.87
75155;HTU21D;63735;44.730;37.818;2023-04-06T04:55:58;9.81;78.83
75155;HTU21D;63735;44.730;37.818;2023-04-06T04:58:26;9.84;78.74
75155;HTU21D;63735;44.730;37.818;2023-04-06T05:00:56;9.81;78.72
75155;HTU21D;63735;44.730;37.818;2023-04-06T05:03:24;9.81;78.73
75155;HTU21D;63735;44.730;37.818;2023-04-06T05:06:13;9.78;78.86
75155;HTU21D;63735;44.730;37.818;2023-04-06T05:08:41;9.79;78.79
75155;HTU21D;63735;44.730;37.818;2023-04-06T05:11:07;9.81;78.74
75155;HTU21D;63735;44.730;37.818;2023-04-06T05:13:38;9.79;78.69
75155;HTU21D;63735;44.730;37.818;2023-04-06T05:16:11;9.81;78.73
75155;HTU21D;63735;44.730;37.818;2023-04-06T05:18:37;9.82;78.62
75155;HTU21D;63735;44.730;37.818;2023-04-06T05:21:05;9.85;78.57
75155;HTU21D;63735;44.730;37.818;2023-04-06T05:23:42;9.90;78.44
75155;HTU21D;63735;44.730;37.818;2023-04-06T05:26:08;9.95;78.35
75155;HTU21D;63735;44.730;37.818;2023-04-06T05:28:34;9.99;78.20
75155;HTU21D;63735;44.730;37.818;2023-04-06T05:31:02;10.01;78.08
75155;HTU21D;63735;44.730;37.818;2023-04-06T05:33:35;10.03;78.01
75155;HTU21D;63735;44.730;37.818;2023-04-06T05:36:12;10.05;77.95
75155;HTU21D;63735;44.730;37.818;2023-04-06T05:38:42;10.03;77.92
75155;HTU21D;63735;44.730;37.818;2023-04-06T05:41:26;9.98;77.91
75155;HTU21D;63735;44.730;37.818;2023-04-06T05:43:52;9.94;77.98
75155;HTU21D;63735;44.730;37.818;2023-04-06T05:46:19;9.97;78.01
75155;HTU21D;63735;44.730;37.818;2023-04-06T05:48:45;10.01;77.88
75155;HTU21D;63735;44.730;37.818;2023-04-06T05:51:13;9.97;77.93
75155;HTU21D;63735;44.730;37.818;2023-04-06T05:53:44;9.98;77.99
75155;HTU21D;63735;44.730;37.818;2023-04-06T05:56:10;9.97;77.95
75155;HTU21D;63735;44.730;37.818;2023-04-06T05:58:36;9.88;78.07
75155;HTU21D;63735;44.730;37.818;2023-04-06T06:01:03;9.71;78.40
75155;HTU21D;63735;44.730;37.818;2023-04-06T06:03:42;9.70;78.67
75155;HTU21D;63735;44.730;37.818;2023-04-06T06:06:08;9.69;78.79
75155;HTU21D;63735;44.730;37.818;2023-04-06T06:08:52;9.78;78.75
75155;HTU21D;63735;44.730;37.818;2023-04-06T06:11:19;9.86;78.59
75155;HTU21D;63735;44.730;37.818;2023-04-06T06:13:46;9.88;78.50
75155;HTU21D;63735;44.730;37.818;2023-04-06T06:16:13;9.84;78.61
75155;HTU21D;63735;44.730;37.818;2023-04-06T06:18:44;9.82;78.77
75155;HTU21D;63735;44.730;37.818;2023-04-06T06:21:10;9.92;78.79
75155;HTU21D;63735;44.730;37.818;2023-04-06T06:23:42;9.98;78.73
75155;HTU21D;63735;44.730;37.818;2023-04-06T06:26:10;9.98;78.61
75155;HTU21D;63735;44.730;37.818;2023-04-06T06:28:36;9.95;78.82
75155;HTU21D;63735;44.730;37.818;2023-04-06T06:31:02;9.97;78.89
75155;HTU21D;63735;44.730;37.818;2023-04-06T06:33:29;10.07;78.72
75155;HTU21D;63735;44.730;37.818;2023-04-06T06:35:57;10.06;78.59
75155;HTU21D;63735;44.730;37.818;2023-04-06T06:38:23;10.05;78.69
75155;HTU21D;63735;44.730;37.818;2023-04-06T06:40:49;10.05;78.75
75155;HTU21D;63735;44.730;37.818;2023-04-06T06:43:15;10.11;78.75
75155;HTU21D;63735;44.730;37.818;2023-04-06T06:45:57;10.09;78.69
75155;HTU21D;63735;44.730;37.818;2023-04-06T06:48:24;10.06;78.80
75155;HTU21D;63735;44.730;37.818;2023-04-06T06:50:50;10.05;79.17
75155;HTU21D;63735;44.730;37.818;2023-04-06T06:53:16;9.98;79.45
75155;HTU21D;63735;44.730;37.818;2023-04-06T06:55:42;9.98;79.51
75155;HTU21D;63735;44.730;37.818;2023-04-06T06:58:09;9.97;79.51
75155;HTU21D;63735;44.730;37.818;2023-04-06T07:00:36;9.91;79.56
75155;HTU21D;63735;44.730;37.818;2023-04-06T07:03:02;9.81;79.74
75155;HTU21D;63735;44.730;37.818;2023-04-06T07:05:28;9.71;79.96
75155;HTU21D;63735;44.730;37.818;2023-04-06T07:07:55;9.62;80.20
75155;HTU21D;63735;44.730;37.818;2023-04-06T07:10:22;9.59;80.27
75155;HTU21D;63735;44.730;37.818;2023-04-06T07:12:48;9.51;80.37
75155;HTU21D;63735;44.730;37.818;2023-04-06T07:15:14;9.48;80.58
75155;HTU21D;63735;44.730;37.818;2023-04-06T07:17:40;9.61;80.59
75155;HTU21D;63735;44.730;37.818;2023-04-06T07:20:15;9.70;80.36
75155;HTU21D;63735;44.730;37.818;2023-04-06T07:22:42;9.76;80.43
75155;HTU21D;63735;44.730;37.818;2023-04-06T07:25:09;9.88;80.30
75155;HTU21D;63735;44.730;37.818;2023-04-06T07:27:35;9.98;80.04
75155;HTU21D;63735;44.730;37.818;2023-04-06T07:30:02;10.10;79.85
75155;HTU21D;63735;44.730;37.818;2023-04-06T07:32:28;10.10;79.77
75155;HTU21D;63735;44.730;37.818;2023-04-06T07:34:56;10.10;79.82
75155;HTU21D;63735;44.730;37.818;2023-04-06T07:37:22;10.04;79.92
75155;HTU21D;63735;44.730;37.818;2023-04-06T07:39:48;10.00;80.06
75155;HTU21D;63735;44.730;37.818;2023-04-06T07:42:14;10.06;80.17
75155;HTU21D;63735;44.730;37.818;2023-04-06T07:44:40;10.10;80.12
75155;HTU21D;63735;44.730;37.818;2023-04-06T07:47:07;10.14;80.14
75155;HTU21D;63735;44.730;37.818;2023-04-06T07:49:33;10.35;79.98
75155;HTU21D;63735;44.730;37.818;2023-04-06T07:52:00;10.51;79.78
75155;HTU21D;63735;44.730;37.818;2023-04-06T07:54:28;10.60;79.61
75155;HTU21D;63735;44.730;37.818;2023-04-06T07:56:54;10.64;79.33
75155;HTU21D;63735;44.730;37.818;2023-04-06T07:59:20;10.56;79.47
75155;HTU21D;63735;44.730;37.818;2023-04-06T08:01:46;10.56;79.50
75155;HTU21D;63735;44.730;37.818;2023-04-06T08:04:12;10.60;79.55
75155;HTU21D;63735;44.730;37.818;2023-04-06T08:06:38;10.67;79.53
75155;HTU21D;63735;44.730;37.818;2023-04-06T08:09:04;10.74;79.23
75155;HTU21D;63735;44.730;37.818;2023-04-06T08:11:30;10.62;79.28
75155;HTU21D;63735;44.730;37.818;2023-04-06T08:13:56;10.54;79.46
75155;HTU21D;63735;44.730;37.818;2023-04-06T08:16:23;10.44;79.52
75155;HTU21D;63735;44.730;37.818;2023-04-06T08:18:49;10.45;79.51
75155;HTU21D;63735;44.730;37.818;2023-04-06T08:21:15;10.43;79.37
75155;HTU21D;63735;44.730;37.818;2023-04-06T08:23:41;10.33;79.38
75155;HTU21D;63735;44.730;37.818;2023-04-06T08:26:07;10.24;79.52
75155;HTU21D;63735;44.730;37.818;2023-04-06T08:28:33;10.13;79.58
75155;HTU21D;63735;44.730;37.818;2023-04-06T08:31:06;10.08;79.66
75155;HTU21D;63735;44.730;37.818;2023-04-06T08:33:33;10.09;79.60
75155;HTU21D;63735;44.730;37.818;2023-04-06T08:36:12;10.19;79.46
75155;HTU21D;63735;44.730;37.818;2023-04-06T08:38:39;10.21;79.24
75155;HTU21D;63735;44.730;37.818;2023-04-06T08:41:12;10.27;79.20
75155;HTU21D;63735;44.730;37.818;2023-04-06T08:44:00;10.33;78.98
75155;HTU21D;63735;44.730;37.818;2023-04-06T08:46:27;10.27;78.95
75155;HTU21D;63735;44.730;37.818;2023-04-06T08:48:58;10.25;79.01
75155;HTU21D;63735;44.730;37.818;2023-04-06T08:51:24;10.35;79.03
75155;HTU21D;63735;44.730;37.818;2023-04-06T08:53:54;10.46;78.80
75155;HTU21D;63735;44.730;37.818;2023-04-06T08:56:25;10.50;78.38
75155;HTU21D;63735;44.730;37.818;2023-04-06T08:58:52;10.50;78.33
75155;HTU21D;63735;44.730;37.818;2023-04-06T09:01:21;10.50;78.08
75155;HTU21D;63735;44.730;37.818;2023-04-06T09:03:49;10.51;77.92
75155;HTU21D;63735;44.730;37.818;2023-04-06T09:06:15;10.52;77.81
75155;HTU21D;63735;44.730;37.818;2023-04-06T09:08:42;10.53;77.69
75155;HTU21D;63735;44.730;37.818;2023-04-06T09:11:08;10.59;77.60
75155;HTU21D;63735;44.730;37.818;2023-04-06T09:13:54;10.70;77.38
75155;HTU21D;63735;44.730;37.818;2023-04-06T09:16:21;10.72;77.10
75155;HTU21D;63735;44.730;37.818;2023-04-06T09:18:48;10.78;76.98
75155;HTU21D;63735;44.730;37.818;2023-04-06T09:21:17;10.95;76.72
75155;HTU21D;63735;44.730;37.818;2023-04-06T09:23:43;11.02;76.38
75155;HTU21D;63735;44.730;37.818;2023-04-06T09:26:14;11.03;76.24
75155;HTU21D;63735;44.730;37.818;2023-04-06T09:28:50;11.09;76.08
75155;HTU21D;63735;44.730;37.818;2023-04-06T09:31:21;11.12;76.21
75155;HTU21D;63735;44.730;37.818;2023-04-06T09:33:48;11.16;76.10
75155;HTU21D;63735;44.730;37.818;2023-04-06T09:36:14;11.10;76.13
75155;HTU21D;63735;44.730;37.818;2023-04-06T09:39:01;11.17;76.05
75155;HTU21D;63735;44.730;37.818;2023-04-06T09:44:05;11.17;76.05
75155;HTU21D;63735;44.730;37.818;2023-04-06T09:46:32;11.17;75.92
75155;HTU21D;63735;44.730;37.818;2023-04-06T09:49:01;11.22;75.86
75155;HTU21D;63735;44.730;37.818;2023-04-06T09:54:04;11.23;75.56
75155;HTU21D;63735;44.730;37.818;2023-04-06T09:56:36;11.20;75.26
75155;HTU21D;63735;44.730;37.818;2023-04-06T09:59:08;11.25;75.30
75155;HTU21D;63735;44.730;37.818;2023-04-06T10:01:37;11.30;75.25
75155;HTU21D;63735;44.730;37.818;2023-04-06T10:04:21;11.38;75.23
75155;HTU21D;63735;44.730;37.818;2023-04-06T10:06:51;11.42;74.96
75155;HTU21D;63735;44.730;37.818;2023-04-06T10:09:21;11.22;75.32
75155;HTU21D;63735;44.730;37.818;2023-04-06T10:11:50;11.18;75.44
75155;HTU21D;63735;44.730;37.818;2023-04-06T10:14:16;11.19;75.32
75155;HTU21D;63735;44.730;37.818;2023-04-06T10:16:43;11.26;75.18
75155;HTU21D;63735;44.730;37.818;2023-04-06T10:19:21;11.28;75.02
75155;HTU21D;63735;44.730;37.818;2023-04-06T10:21:51;11.29;74.99
75155;HTU21D;63735;44.730;37.818;2023-04-06T10:24:20;11.41;74.76
75155;HTU21D;63735;44.730;37.818;2023-04-06T10:26:57;11.42;74.83
75155;HTU21D;63735;44.730;37.818;2023-04-06T10:29:23;11.42;74.72
75155;HTU21D;63735;44.730;37.818;2023-04-06T10:31:49;11.51;74.79
75155;HTU21D;63735;44.730;37.818;2023-04-06T10:34:15;11.59;74.53
75155;HTU21D;63735;44.730;37.818;2023-04-06T10:36:41;11.40;74.53
75155;HTU21D;63735;44.730;37.818;2023-04-06T10:39:07;11.18;75.03
75155;HTU21D;63735;44.730;37.818;2023-04-06T10:41:34;11.24;75.33
75155;HTU21D;63735;44.730;37.818;2023-04-06T10:44:00;11.38;75.05
75155;HTU21D;63735;44.730;37.818;2023-04-06T10:46:28;11.49;74.94
75155;HTU21D;63735;44.730;37.818;2023-04-06T10:48:55;11.33;74.66
75155;HTU21D;63735;44.730;37.818;2023-04-06T10:51:25;11.09;75.18
75155;HTU21D;63735;44.730;37.818;2023-04-06T10:53:55;10.92;75.55
75155;HTU21D;63735;44.730;37.818;2023-04-06T10:56:23;10.90;75.71
75155;HTU21D;63735;44.730;37.818;2023-04-06T10:58:54;10.95;75.62
75155;HTU21D;63735;44.730;37.818;2023-04-06T11:01:23;11.00;75.52
75155;HTU21D;63735;44.730;37.818;2023-04-06T11:03:54;10.96;75.36
75155;HTU21D;63735;44.730;37.818;2023-04-06T11:06:26;10.88;75.67
75155;HTU21D;63735;44.730;37.818;2023-04-06T11:08:55;10.96;75.47
75155;HTU21D;63735;44.730;37.818;2023-04-06T11:11:22;10.85;75.46
75155;HTU21D;63735;44.730;37.818;2023-04-06T11:16:30;10.59;75.86
75155;HTU21D;63735;44.730;37.818;2023-04-06T11:19:01;10.54;76.08
75155;HTU21D;63735;44.730;37.818;2023-04-06T11:21:47;10.64;75.95
75155;HTU21D;63735;44.730;37.818;2023-04-06T11:26:45;10.70;75.88
75155;HTU21D;63735;44.730;37.818;2023-04-06T11:29:12;10.77;75.61
75155;HTU21D;63735;44.730;37.818;2023-04-06T11:32:02;10.86;75.63
75155;HTU21D;63735;44.730;37.818;2023-04-06T11:34:30;10.90;75.61
75155;HTU21D;63735;44.730;37.818;2023-04-06T11:36:58;11.03;75.49
75155;HTU21D;63735;44.730;37.818;2023-04-06T11:39:26;11.12;75.25
75155;HTU21D;63735;44.730;37.818;2023-04-06T11:42:00;11.11;75.29
75155;HTU21D;63735;44.730;37.818;2023-04-06T11:44:34;11.00;75.21
75155;HTU21D;63735;44.730;37.818;2023-04-06T11:47:02;10.92;75.61
75155;HTU21D;63735;44.730;37.818;2023-04-06T11:49:29;10.90;75.67
75155;HTU21D;63735;44.730;37.818;2023-04-06T11:51:56;10.96;75.67
75155;HTU21D;63735;44.730;37.818;2023-04-06T11:54:36;11.07;75.47
75155;HTU21D;63735;44.730;37.818;2023-04-06T11:57:05;11.16;75.13
75155;HTU21D;63735;44.730;37.818;2023-04-06T11:59:32;11.29;74.89
75155;HTU21D;63735;44.730;37.818;2023-04-06T12:01:58;11.33;74.61
75155;HTU21D;63735;44.730;37.818;2023-04-06T12:04:24;11.38;74.40
75155;HTU21D;63735;44.730;37.818;2023-04-06T12:06:50;11.45;74.22
75155;HTU21D;63735;44.730;37.818;2023-04-06T12:09:16;11.44;73.85
75155;HTU21D;63735;44.730;37.818;2023-04-06T12:11:46;11.23;74.18
75155;HTU21D;63735;44.730;37.818;2023-04-06T12:14:12;11.10;74.63
75155;HTU21D;63735;44.730;37.818;2023-04-06T12:16:38;11.20;74.71
75155;HTU21D;63735;44.730;37.818;2023-04-06T12:19:05;11.39;74.38
75155;HTU21D;63735;44.730;37.818;2023-04-06T12:21:31;11.39;73.91
75155;HTU21D;63735;44.730;37.818;2023-04-06T12:23:58;11.27;73.93
75155;HTU21D;63735;44.730;37.818;2023-04-06T12:26:25;11.23;73.99
75155;HTU21D;63735;44.730;37.818;2023-04-06T12:28:52;11.18;74.01
75155;HTU21D;63735;44.730;37.818;2023-04-06T12:31:19;11.14;74.02
75155;HTU21D;63735;44.730;37.818;2023-04-06T12:33:49;11.12;73.91
75155;HTU21D;63735;44.730;37.818;2023-04-06T12:36:17;11.09;73.93
75155;HTU21D;63735;44.730;37.818;2023-04-06T12:38:45;11.14;73.80
75155;HTU21D;63735;44.730;37.818;2023-04-06T12:41:11;11.15;73.73
75155;HTU21D;63735;44.730;37.818;2023-04-06T12:43:39;11.24;73.69
75155;HTU21D;63735;44.730;37.818;2023-04-06T12:46:04;11.27;73.53
75155;HTU21D;63735;44.730;37.818;2023-04-06T12:48:31;11.07;73.70
75155;HTU21D;63735;44.730;37.818;2023-04-06T12:50:58;10.98;74.02
75155;HTU21D;63735;44.730;37.818;2023-04-06T12:53:25;10.93;74.09
75155;HTU21D;63735;44.730;37.818;2023-04-06T12:55:51;10.90;74.10
75155;HTU21D;63735;44.730;37.818;2023-04-06T12:58:17;10.87;74.14
75155;HTU21D;63735;44.730;37.818;2023-04-06T13:00:44;10.95;74.10
75155;HTU21D;63735;44.730;37.818;2023-04-06T13:03:09;11.03;74.00
75155;HTU21D;63735;44.730;37.818;2023-04-06T13:05:35;11.11;73.77
75155;HTU21D;63735;44.730;37.818;2023-04-06T13:08:01;11.00;73.93
75155;HTU21D;63735;44.730;37.818;2023-04-06T13:10:27;11.04;73.98
75155;HTU21D;63735;44.730;37.818;2023-04-06T13:12:53;11.05;73.86
75155;HTU21D;63735;44.730;37.818;2023-04-06T13:15:19;11.11;73.94
75155;HTU21D;63735;44.730;37.818;2023-04-06T13:17:45;11.29;73.73
75155;HTU21D;63735;44.730;37.818;2023-04-06T13:20:12;11.43;73.46
75155;HTU21D;63735;44.730;37.818;2023-04-06T13:22:38;11.57;73.31
75155;HTU21D;63735;44.730;37.818;2023-04-06T13:25:04;11.84;73.06
75155;HTU21D;63735;44.730;37.818;2023-04-06T13:27:30;11.99;72.45
75155;HTU21D;63735;44.730;37.818;2023-04-06T13:29:59;12.20;73.28
75155;HTU21D;63735;44.730;37.818;2023-04-06T13:32:25;12.49;72.63
75155;HTU21D;63735;44.730;37.818;2023-04-06T13:34:54;12.37;71.63
75155;HTU21D;63735;44.730;37.818;2023-04-06T13:37:20;12.18;72.29
75155;HTU21D;63735;44.730;37.818;2023-04-06T13:39:46;12.13;72.41
75155;HTU21D;63735;44.730;37.818;2023-04-06T13:42:12;12.06;71.79
75155;HTU21D;63735;44.730;37.818;2023-04-06T13:44:38;11.96;71.98
75155;HTU21D;63735;44.730;37.818;2023-04-06T13:47:04;11.82;72.06
75155;HTU21D;63735;44.730;37.818;2023-04-06T13:49:31;11.68;72.00
75155;HTU21D;63735;44.730;37.818;2023-04-06T13:51:58;11.57;72.10
75155;HTU21D;63735;44.730;37.818;2023-04-06T13:54:24;11.40;72.39
75155;HTU21D;63735;44.730;37.818;2023-04-06T13:56:51;11.25;72.41
75155;HTU21D;63735;44.730;37.818;2023-04-06T13:59:17;11.11;72.60
75155;HTU21D;63735;44.730;37.818;2023-04-06T14:01:43;10.99;72.77
75155;HTU21D;63735;44.730;37.818;2023-04-06T14:04:09;10.96;72.87
75155;HTU21D;63735;44.730;37.818;2023-04-06T14:06:37;10.99;72.91
75155;HTU21D;63735;44.730;37.818;2023-04-06T14:09:03;11.12;72.80
75155;HTU21D;63735;44.730;37.818;2023-04-06T14:11:29;11.23;72.66
75155;HTU21D;63735;44.730;37.818;2023-04-06T14:13:55;11.20;72.52
75155;HTU21D;63735;44.730;37.818;2023-04-06T14:16:23;11.09;72.40
75155;HTU21D;63735;44.730;37.818;2023-04-06T14:18:49;10.97;72.55
75155;HTU21D;63735;44.730;37.818;2023-04-06T14:21:16;10.92;72.70
75155;HTU21D;63735;44.730;37.818;2023-04-06T14:23:42;10.92;72.72
75155;HTU21D;63735;44.730;37.818;2023-04-06T14:26:08;10.94;72.65
75155;HTU21D;63735;44.730;37.818;2023-04-06T14:28:36;10.93;72.64
75155;HTU21D;63735;44.730;37.818;2023-04-06T14:31:10;10.90;72.56
75155;HTU21D;63735;44.730;37.818;2023-04-06T14:33:37;10.96;72.59
75155;HTU21D;63735;44.730;37.818;2023-04-06T14:36:03;10.90;72.56
75155;HTU21D;63735;44.730;37.818;2023-04-06T14:38:31;10.92;72.69
75155;HTU21D;63735;44.730;37.818;2023-04-06T14:40:57;10.92;72.60
75155;HTU21D;63735;44.730;37.818;2023-04-06T14:43:24;10.87;72.56
75155;HTU21D;63735;44.730;37.818;2023-04-06T14:45:51;10.88;72.64
75155;HTU21D;63735;44.730;37.818;2023-04-06T14:48:17;10.96;72.58
75155;HTU21D;63735;44.730;37.818;2023-04-06T14:50:57;11.05;72.41
75155;HTU21D;63735;44.730;37.818;2023-04-06T14:53:23;11.04;72.36
75155;HTU21D;63735;44.730;37.818;2023-04-06T14:55:50;11.02;72.36
75155;HTU21D;63735;44.730;37.818;2023-04-06T14:58:20;10.98;72.41
75155;HTU21D;63735;44.730;37.818;2023-04-06T15:00:47;10.96;72.39
75155;HTU21D;63735;44.730;37.818;2023-04-06T15:03:13;10.90;72.46
75155;HTU21D;63735;44.730;37.818;2023-04-06T15:05:39;10.88;72.50
75155;HTU21D;63735;44.730;37.818;2023-04-06T15:08:06;10.81;72.59
75155;HTU21D;63735;44.730;37.818;2023-04-06T15:10:32;10.80;72.64
75155;HTU21D;63735;44.730;37.818;2023-04-06T15:12:59;10.77;72.68
75155;HTU21D;63735;44.730;37.818;2023-04-06T15:15:25;10.78;72.69
75155;HTU21D;63735;44.730;37.818;2023-04-06T15:17:51;10.77;72.67
75155;HTU21D;63735;44.730;37.818;2023-04-06T15:20:17;10.79;72.54
75155;HTU21D;63735;44.730;37.818;2023-04-06T15:22:43;10.77;72.57
75155;HTU21D;63735;44.730;37.818;2023-04-06T15:25:09;10.72;72.60
75155;HTU21D;63735;44.730;37.818;2023-04-06T15:27:35;10.71;72.71